createdAt,value
2019-02-16T00:01:58.903Z,37.60
2019-02-16T00:04:31.412Z,37.60
2019-02-16T00:07:03.171Z,37.60
2019-02-16T00:09:34.132Z,37.60
2019-02-16T00:12:05.234Z,37.60
2019-02-16T00:14:36.594Z,37.70
2019-02-16T00:17:07.152Z,37.70
2019-02-16T00:19:38.566Z,37.70
2019-02-16T00:22:10.239Z,37.70
2019-02-16T00:24:41.166Z,37.70
2019-02-16T00:27:11.592Z,37.70
2019-02-16T00:29:42.839Z,37.70
2019-02-16T00:32:13.430Z,37.70
2019-02-16T00:34:44.524Z,37.70
2019-02-16T00:37:14.922Z,37.70
2019-02-16T00:39:45.883Z,37.70
2019-02-16T00:42:17.021Z,37.70
2019-02-16T00:44:48.499Z,37.80
2019-02-16T00:47:19.658Z,37.80
2019-02-16T00:49:50.761Z,37.80
2019-02-16T00:52:21.907Z,37.80
2019-02-16T00:54:52.734Z,37.80
2019-02-16T00:57:24.181Z,37.80
2019-02-16T00:59:55.325Z,37.80
2019-02-16T01:02:26.790Z,37.70
2019-02-16T01:04:58.251Z,37.70
2019-02-16T01:07:29.064Z,37.90
2019-02-16T01:10:00.296Z,37.80
2019-02-16T01:12:31.334Z,37.70
2019-02-16T01:15:02.802Z,37.80
2019-02-16T01:17:33.882Z,37.80
2019-02-16T01:20:04.833Z,37.70
2019-02-16T01:22:35.709Z,37.70
2019-02-16T01:25:06.769Z,37.80
2019-02-16T01:27:37.382Z,37.80
2019-02-16T01:30:10.787Z,37.80
2019-02-16T01:32:41.219Z,37.80
2019-02-16T01:35:11.651Z,37.80
2019-02-16T01:37:42.156Z,37.80
2019-02-16T01:40:13.274Z,37.80
2019-02-16T01:42:44.418Z,37.80
2019-02-16T01:45:15.610Z,37.80
2019-02-16T01:47:47.057Z,37.80
2019-02-16T01:50:18.227Z,37.90
2019-02-16T01:52:49.342Z,37.90
2019-02-16T01:55:20.186Z,37.90
2019-02-16T01:57:52.244Z,37.90
2019-02-16T02:00:23.270Z,37.90
2019-02-16T02:02:54.225Z,37.90
2019-02-16T02:05:25.374Z,37.90
2019-02-16T02:07:56.849Z,37.90
2019-02-16T02:10:28.050Z,37.90
2019-02-16T02:12:59.721Z,37.90
2019-02-16T02:15:30.362Z,37.90
2019-02-16T02:18:01.404Z,37.80
2019-02-16T02:20:31.748Z,37.80
2019-02-16T02:23:02.689Z,37.90
2019-02-16T02:25:33.077Z,37.90
2019-02-16T02:28:03.892Z,37.90
2019-02-16T02:30:34.225Z,37.90
2019-02-16T02:33:05.498Z,37.90
2019-02-16T02:35:36.128Z,37.90
2019-02-16T02:38:06.860Z,37.90
2019-02-16T02:40:37.193Z,37.90
2019-02-16T02:43:07.950Z,37.90
2019-02-16T02:45:39.058Z,37.90
2019-02-16T02:48:09.845Z,37.90
2019-02-16T02:50:41.050Z,37.90
2019-02-16T02:53:12.183Z,37.90
2019-02-16T02:55:43.639Z,37.90
2019-02-16T02:58:14.717Z,38.00
2019-02-16T03:00:45.926Z,38.00
2019-02-16T03:03:17.090Z,37.90
2019-02-16T03:05:48.098Z,38.00
2019-02-16T03:08:19.363Z,38.00
2019-02-16T03:10:50.502Z,37.90
2019-02-16T03:13:22.257Z,38.00
2019-02-16T03:15:53.119Z,38.00
2019-02-16T03:18:24.610Z,37.90
2019-02-16T03:20:56.606Z,38.00
2019-02-16T03:23:27.932Z,38.00
2019-02-16T03:26:34.836Z,38.00
2019-02-16T03:29:19.693Z,38.00
2019-02-16T03:32:22.068Z,38.00
2019-02-16T03:35:13.279Z,38.00
2019-02-16T03:38:01.090Z,38.00
2019-02-16T03:40:31.654Z,38.00
2019-02-16T03:43:02.544Z,38.00
2019-02-16T03:45:33.487Z,38.00
2019-02-16T03:48:04.799Z,38.00
2019-02-16T03:50:35.962Z,38.00
2019-02-16T03:53:07.383Z,38.00
2019-02-16T03:55:38.579Z,38.00
2019-02-16T03:58:10.582Z,38.00
2019-02-16T04:00:42.033Z,38.00
2019-02-16T04:03:12.650Z,38.00
2019-02-16T04:05:43.398Z,38.00
2019-02-16T04:08:13.918Z,38.00
2019-02-16T04:10:44.468Z,38.00
2019-02-16T04:13:14.861Z,38.00
2019-02-16T04:15:45.686Z,38.00
2019-02-16T04:18:16.078Z,38.00
2019-02-16T04:20:47.303Z,38.00
2019-02-16T04:23:17.821Z,38.00
2019-02-16T04:25:48.559Z,38.00
2019-02-16T04:28:18.891Z,38.00
2019-02-16T04:30:49.930Z,38.10
2019-02-16T04:33:20.850Z,37.90
2019-02-16T04:35:51.286Z,38.00
2019-02-16T04:38:21.605Z,38.10
2019-02-16T04:40:52.342Z,38.60
2019-02-16T04:43:23.153Z,38.10
2019-02-16T04:45:54.034Z,37.90
2019-02-16T04:48:25.171Z,38.00
2019-02-16T04:50:56.618Z,38.00
2019-02-16T04:53:27.611Z,38.00
2019-02-16T04:55:58.935Z,38.00
2019-02-16T04:58:30.349Z,38.00
2019-02-16T05:01:01.789Z,38.00
2019-02-16T05:03:33.563Z,37.90
2019-02-16T05:06:04.701Z,38.00
2019-02-16T05:08:35.849Z,38.00
2019-02-16T05:11:06.989Z,38.00
2019-02-16T05:13:38.527Z,38.00
2019-02-16T05:16:09.582Z,38.00
2019-02-16T05:18:40.729Z,38.00
2019-02-16T05:21:12.214Z,38.00
2019-02-16T05:23:43.321Z,38.00
2019-02-16T05:26:14.797Z,38.00
2019-02-16T05:28:45.920Z,38.00
2019-02-16T05:31:17.056Z,38.00
2019-02-16T05:33:48.519Z,38.00
2019-02-16T05:36:18.846Z,38.00
2019-02-16T05:38:49.880Z,38.00
2019-02-16T05:41:20.218Z,38.00
2019-02-16T05:43:51.255Z,38.10
2019-02-16T05:46:24.652Z,38.00
2019-02-16T05:48:55.378Z,37.90
2019-02-16T05:51:26.854Z,38.00
2019-02-16T05:53:57.997Z,38.00
2019-02-16T05:56:29.118Z,38.00
2019-02-16T05:59:00.091Z,38.00
2019-02-16T06:01:31.400Z,38.00
2019-02-16T06:04:02.498Z,38.00
2019-02-16T06:06:33.403Z,38.00
2019-02-16T06:09:05.718Z,38.10
2019-02-16T06:11:36.694Z,37.90
2019-02-16T06:14:07.867Z,38.00
2019-02-16T06:16:39.290Z,38.00
2019-02-16T06:19:10.668Z,37.90
2019-02-16T06:21:41.599Z,38.10
2019-02-16T06:24:13.027Z,38.00
2019-02-16T06:26:44.257Z,38.00
2019-02-16T06:29:15.262Z,38.00
2019-02-16T06:31:46.350Z,38.00
2019-02-16T06:34:17.294Z,38.00
2019-02-16T06:36:48.330Z,38.00
2019-02-16T06:39:19.783Z,38.00
2019-02-16T06:41:50.619Z,38.00
2019-02-16T06:44:22.074Z,38.00
2019-02-16T06:46:53.013Z,37.90
2019-02-16T06:49:23.845Z,38.60
2019-02-16T06:51:55.609Z,38.00
2019-02-16T06:54:26.906Z,37.90
2019-02-16T06:57:23.099Z,38.00
2019-02-16T06:59:55.989Z,38.00
2019-02-16T07:02:28.858Z,38.00
2019-02-16T07:04:59.890Z,38.00
2019-02-16T07:07:31.365Z,38.00
2019-02-16T07:10:02.798Z,38.00
2019-02-16T07:12:35.166Z,38.00
2019-02-16T07:15:06.922Z,38.10
2019-02-16T07:17:57.014Z,37.90
2019-02-16T07:20:27.827Z,37.90
2019-02-16T07:22:59.065Z,37.90
2019-02-16T07:25:29.427Z,37.90
2019-02-16T07:28:00.158Z,37.90
2019-02-16T07:30:30.561Z,37.90
2019-02-16T07:33:01.518Z,37.90
2019-02-16T07:35:31.877Z,37.90
2019-02-16T07:38:03.173Z,37.90
2019-02-16T07:40:34.335Z,37.90
2019-02-16T07:43:05.908Z,37.90
2019-02-16T07:46:08.340Z,38.00
2019-02-16T07:49:00.094Z,37.90
2019-02-16T07:51:47.870Z,37.90
2019-02-16T07:54:26.738Z,37.90
2019-02-16T07:57:11.421Z,37.90
2019-02-16T08:00:10.522Z,37.80
2019-02-16T08:02:54.651Z,37.90
2019-02-16T08:09:10.264Z,37.80
2019-02-16T08:12:16.527Z,37.90
2019-02-16T08:15:04.452Z,37.90
2019-02-16T08:18:11.322Z,37.90
2019-02-16T08:20:55.394Z,37.90
2019-02-16T08:23:43.122Z,38.00
2019-02-16T08:26:31.877Z,38.00
2019-02-16T08:29:24.510Z,38.00
2019-02-16T08:32:20.656Z,38.00
2019-02-16T08:34:59.857Z,38.10
2019-02-16T08:37:47.738Z,38.10
2019-02-16T08:40:27.726Z,38.10
2019-02-16T08:43:17.453Z,38.00
2019-02-16T08:46:07.341Z,38.00
2019-02-16T08:48:55.932Z,38.00
2019-02-16T08:51:48.943Z,38.00
2019-02-16T08:54:40.384Z,38.10
2019-02-16T08:57:22.595Z,38.00
2019-02-16T09:00:15.831Z,38.00
2019-02-16T09:03:18.325Z,38.00
2019-02-16T09:06:07.182Z,38.10
2019-02-16T09:09:06.645Z,38.10
2019-02-16T09:11:53.058Z,38.10
2019-02-16T09:14:41.526Z,38.10
2019-02-16T09:17:45.934Z,38.10
2019-02-16T09:20:34.502Z,38.10
2019-02-16T09:23:20.782Z,38.10
2019-02-16T09:26:08.129Z,38.10
2019-02-16T09:29:01.166Z,38.10
2019-02-16T09:32:03.260Z,38.10
2019-02-16T09:34:44.606Z,38.20
2019-02-16T09:37:40.235Z,38.20
2019-02-16T09:40:26.404Z,38.20
2019-02-16T09:43:04.981Z,38.80
2019-02-16T09:45:55.169Z,38.30
2019-02-16T09:49:00.474Z,38.30
2019-02-16T09:51:41.680Z,38.30
2019-02-16T09:54:31.870Z,38.40
2019-02-16T09:57:20.146Z,38.30
2019-02-16T10:00:01.502Z,38.30
2019-02-16T10:02:51.438Z,38.30
2019-02-16T10:05:44.325Z,38.30
2019-02-16T10:08:34.525Z,38.30
2019-02-16T10:11:20.415Z,38.30
2019-02-16T10:14:15.222Z,38.30
2019-02-16T10:16:54.962Z,38.30
2019-02-16T10:19:44.258Z,38.30
2019-02-16T10:22:31.092Z,38.20
2019-02-16T10:25:21.842Z,38.30
2019-02-16T10:28:19.718Z,38.30
2019-02-16T10:31:12.975Z,38.30
2019-02-16T10:34:22.831Z,38.20
2019-02-16T10:37:12.095Z,38.30
2019-02-16T10:39:55.062Z,38.20
2019-02-16T10:42:34.128Z,38.20
2019-02-16T10:45:27.962Z,38.10
2019-02-16T10:48:17.302Z,38.20
2019-02-16T10:50:53.964Z,38.10
2019-02-16T10:53:56.137Z,38.00
2019-02-16T10:56:39.570Z,38.10
2019-02-16T10:59:26.380Z,38.20
2019-02-16T11:02:05.086Z,38.20
2019-02-16T11:04:54.479Z,38.00
2019-02-16T11:07:36.557Z,38.10
2019-02-16T11:10:25.591Z,38.00
2019-02-16T11:13:21.521Z,38.00
2019-02-16T11:16:08.433Z,38.00
2019-02-16T11:19:04.809Z,38.10
2019-02-16T11:21:43.634Z,38.00
2019-02-16T11:24:24.915Z,38.00
2019-02-16T11:27:14.489Z,38.70
2019-02-16T11:29:51.991Z,38.00
2019-02-16T11:32:45.033Z,38.00
2019-02-16T11:35:24.495Z,38.00
2019-02-16T11:38:07.501Z,38.00
2019-02-16T11:40:53.670Z,38.00
2019-02-16T11:43:37.446Z,38.00
2019-02-16T11:46:42.689Z,38.00
2019-02-16T11:49:41.472Z,37.90
2019-02-16T11:52:27.065Z,37.90
2019-02-16T11:55:23.692Z,37.90
2019-02-16T11:58:25.305Z,37.90
2019-02-16T12:01:18.516Z,37.90
2019-02-16T12:04:01.946Z,37.80
2019-02-16T12:06:42.610Z,37.70
2019-02-16T12:09:31.573Z,37.70
2019-02-16T12:12:20.224Z,37.60
2019-02-16T12:15:12.415Z,37.60
2019-02-16T12:17:54.155Z,37.50
2019-02-16T12:20:35.328Z,37.40
2019-02-16T12:23:17.046Z,37.30
2019-02-16T12:26:18.361Z,37.20
2019-02-16T12:29:09.381Z,37.10
2019-02-16T12:31:52.970Z,37.00
2019-02-16T12:34:37.787Z,37.00
2019-02-16T12:37:20.353Z,37.00
2019-02-16T12:40:00.345Z,36.80
2019-02-16T12:43:01.886Z,36.80
2019-02-16T12:45:50.921Z,36.70
2019-02-16T12:48:21.390Z,36.60
2019-02-16T12:51:15.926Z,36.60
2019-02-16T12:54:14.140Z,36.60
2019-02-16T12:57:03.340Z,36.50
2019-02-16T12:59:55.473Z,36.40
2019-02-16T13:02:51.670Z,36.40
2019-02-16T13:05:40.819Z,36.30
2019-02-16T13:08:15.942Z,36.20
2019-02-16T13:11:11.473Z,36.20
2019-02-16T13:14:13.390Z,36.10
2019-02-16T13:17:08.623Z,36.10
2019-02-16T13:19:57.146Z,36.10
2019-02-16T13:22:42.166Z,35.70
2019-02-16T13:25:24.471Z,35.70
2019-02-16T13:28:17.317Z,35.70
2019-02-16T13:31:01.623Z,35.70
2019-02-16T13:33:56.627Z,35.50
2019-02-16T13:36:52.051Z,35.30
2019-02-16T13:39:41.495Z,35.00
2019-02-16T13:42:37.738Z,35.00
2019-02-16T13:45:23.278Z,35.20
2019-02-16T13:47:59.089Z,35.30
2019-02-16T13:50:40.969Z,35.40
2019-02-16T13:53:28.658Z,35.50
2019-02-16T13:56:14.624Z,35.50
2019-02-16T13:59:03.255Z,35.60
2019-02-16T14:01:46.094Z,35.80
2019-02-16T14:04:27.649Z,35.80
2019-02-16T14:07:08.026Z,35.90
2019-02-16T14:09:52.323Z,35.90
2019-02-16T14:12:42.569Z,36.70
2019-02-16T14:15:23.854Z,36.00
2019-02-16T14:17:54.840Z,36.00
2019-02-16T14:20:26.017Z,36.10
2019-02-16T14:22:56.990Z,36.10
2019-02-16T14:25:47.468Z,36.30
2019-02-16T14:28:19.846Z,36.10
2019-02-16T14:30:51.282Z,36.20
2019-02-16T14:33:22.438Z,36.40
2019-02-16T14:35:53.502Z,36.30
2019-02-16T14:38:40.788Z,36.30
2019-02-16T14:41:15.518Z,36.40
2019-02-16T14:43:47.298Z,36.40
2019-02-16T14:46:18.726Z,36.50
2019-02-16T14:48:50.113Z,36.40
2019-02-16T14:51:21.625Z,36.50
2019-02-16T14:53:52.982Z,36.50
2019-02-16T14:56:24.217Z,36.50
2019-02-16T14:58:55.369Z,36.50
2019-02-16T15:01:26.413Z,36.50
2019-02-16T15:03:57.346Z,36.60
2019-02-16T15:06:28.790Z,36.50
2019-02-16T15:09:00.254Z,36.60
2019-02-16T15:11:32.923Z,36.60
2019-02-16T15:14:03.818Z,36.60
2019-02-16T15:16:34.719Z,36.60
2019-02-16T15:19:05.778Z,36.60
2019-02-16T15:21:36.624Z,36.70
2019-02-16T15:24:07.453Z,36.70
2019-02-16T15:26:39.719Z,36.70
2019-02-16T15:29:10.894Z,36.70
2019-02-16T15:31:42.307Z,36.80
2019-02-16T15:34:13.460Z,36.70
2019-02-16T15:36:44.962Z,36.80
2019-02-16T15:39:16.838Z,36.80
2019-02-16T15:41:47.841Z,36.80
2019-02-16T15:44:19.276Z,36.80
2019-02-16T15:46:50.345Z,36.80
2019-02-16T15:49:21.861Z,36.80
2019-02-16T15:51:53.216Z,36.80
2019-02-16T15:54:24.514Z,36.90
2019-02-16T15:56:55.626Z,36.90
2019-02-16T15:59:34.994Z,36.90
2019-02-16T16:01:59.433Z,36.90
2019-02-16T16:04:30.871Z,36.90
2019-02-16T16:07:03.248Z,36.90
2019-02-16T16:09:40.711Z,36.90
2019-02-16T16:12:33.785Z,36.90
2019-02-16T16:15:13.963Z,37.00
2019-02-16T16:18:02.994Z,36.90
2019-02-16T16:20:58.482Z,36.90
2019-02-16T16:23:42.291Z,36.90
2019-02-16T16:26:34.966Z,36.90
2019-02-16T16:29:23.261Z,36.80
2019-02-16T16:32:10.031Z,36.90
2019-02-16T16:35:05.850Z,36.90
2019-02-16T16:37:45.586Z,36.80
2019-02-16T16:40:33.122Z,37.00
2019-02-16T16:43:12.460Z,36.90
2019-02-16T16:46:14.054Z,36.90
2019-02-16T16:49:12.346Z,36.80
2019-02-16T16:52:01.512Z,36.80
2019-02-16T16:54:42.377Z,36.90
2019-02-16T16:57:32.378Z,36.90
2019-02-16T17:00:31.763Z,36.90
2019-02-16T17:03:18.873Z,36.80
2019-02-16T17:06:16.239Z,36.80
2019-02-16T17:08:59.845Z,36.90
2019-02-16T17:11:49.959Z,36.70
2019-02-16T17:14:55.374Z,36.70
2019-02-16T17:18:01.131Z,36.80
2019-02-16T17:20:42.099Z,36.80
2019-02-16T17:23:33.860Z,36.70
2019-02-16T17:26:26.835Z,36.70
2019-02-16T17:29:19.434Z,36.70
2019-02-16T17:32:08.669Z,36.70
2019-02-16T17:34:49.945Z,36.80
2019-02-16T17:37:47.202Z,36.70
2019-02-16T17:40:52.359Z,36.80
2019-02-16T17:43:41.115Z,36.80
2019-02-16T17:46:32.286Z,36.80
2019-02-16T17:49:22.110Z,36.80
2019-02-16T17:52:07.614Z,36.80
2019-02-16T17:54:56.859Z,36.80
2019-02-16T17:57:50.534Z,36.80
2019-02-16T18:00:40.580Z,36.80
2019-02-16T18:03:36.686Z,36.80
2019-02-16T18:06:26.532Z,36.80
2019-02-16T18:09:28.731Z,36.90
2019-02-16T18:12:32.930Z,36.90
2019-02-16T18:15:28.719Z,36.90
2019-02-16T18:18:08.431Z,36.80
2019-02-16T18:20:46.981Z,36.80
2019-02-16T18:23:42.750Z,36.90
2019-02-16T18:26:38.843Z,36.90
2019-02-16T18:29:44.050Z,36.90
2019-02-16T18:32:37.249Z,36.80
2019-02-16T18:35:31.010Z,36.80
2019-02-16T18:38:23.158Z,36.80
2019-02-16T18:41:13.034Z,36.90
2019-02-16T18:44:05.354Z,36.90
2019-02-16T18:47:01.462Z,36.90
2019-02-16T18:49:40.916Z,36.90
2019-02-16T18:52:25.668Z,36.90
2019-02-16T18:55:11.154Z,36.90
2019-02-16T18:57:50.143Z,36.90
2019-02-16T19:00:30.784Z,36.90
2019-02-16T19:03:24.178Z,36.90
2019-02-16T19:06:20.748Z,36.90
2019-02-16T19:09:13.800Z,36.80
2019-02-16T19:11:55.044Z,36.90
2019-02-16T19:14:37.234Z,37.00
2019-02-16T19:17:37.788Z,36.80
2019-02-16T19:20:19.782Z,36.90
2019-02-16T19:23:04.770Z,36.90
2019-02-16T19:25:51.652Z,36.90
2019-02-16T19:29:19.366Z,36.90
2019-02-16T19:32:00.371Z,36.90
2019-02-16T19:34:48.690Z,36.90
2019-02-16T19:37:29.129Z,36.90
2019-02-16T19:40:35.280Z,36.90
2019-02-16T19:43:28.521Z,36.90
2019-02-16T19:46:18.167Z,36.80
2019-02-16T19:49:27.055Z,36.80
2019-02-16T19:52:35.918Z,36.80
2019-02-16T19:55:41.229Z,36.80
2019-02-16T19:58:21.993Z,36.80
2019-02-16T20:01:16.724Z,36.90
2019-02-16T20:04:15.602Z,36.90
2019-02-16T20:06:52.998Z,36.90
2019-02-16T20:09:41.373Z,36.90
2019-02-16T20:12:42.606Z,36.90
2019-02-16T20:15:32.466Z,37.60
2019-02-16T20:18:23.331Z,36.90
2019-02-16T20:21:28.793Z,36.90
2019-02-16T20:24:19.291Z,36.90
2019-02-16T20:27:03.904Z,36.90
2019-02-16T20:29:57.347Z,36.90
2019-02-16T20:32:45.559Z,36.80
2019-02-16T20:35:31.553Z,36.90
2019-02-16T20:38:25.940Z,36.90
2019-02-16T20:41:15.238Z,36.90
2019-02-16T20:44:11.548Z,36.90
2019-02-16T20:47:05.877Z,36.80
2019-02-16T20:50:01.740Z,36.80
2019-02-16T20:52:50.034Z,36.80
2019-02-16T20:55:30.284Z,36.90
2019-02-16T20:58:26.421Z,36.90
2019-02-16T21:01:17.148Z,36.90
2019-02-16T21:04:22.844Z,37.00
2019-02-16T21:07:13.152Z,36.90
2019-02-16T21:09:58.695Z,36.90
2019-02-16T21:12:52.370Z,36.90
2019-02-16T21:15:33.773Z,36.90
2019-02-16T21:18:18.873Z,36.80
2019-02-16T21:21:07.182Z,36.80
2019-02-16T21:23:49.248Z,36.80
2019-02-16T21:26:36.285Z,36.90
2019-02-16T21:29:15.560Z,36.80
2019-02-16T21:32:07.900Z,36.80
2019-02-16T21:35:02.779Z,36.70
2019-02-16T21:37:49.286Z,36.80
2019-02-16T21:40:31.942Z,36.80
2019-02-16T21:43:11.471Z,36.80
2019-02-16T21:45:52.981Z,37.50
2019-02-16T21:48:36.258Z,36.80
2019-02-16T21:51:36.031Z,36.80
2019-02-16T21:54:26.014Z,36.80
2019-02-16T21:57:19.045Z,36.80
2019-02-16T22:00:07.831Z,36.80
2019-02-16T22:02:58.506Z,36.80
2019-02-16T22:05:42.952Z,36.80
2019-02-16T22:08:42.007Z,36.80
2019-02-16T22:11:31.939Z,36.80
2019-02-16T22:14:03.359Z,36.80
2019-02-16T22:16:34.513Z,36.80
2019-02-16T22:19:05.660Z,36.80
2019-02-16T22:21:37.363Z,36.70
2019-02-16T22:24:10.164Z,36.80
2019-02-16T22:26:42.540Z,36.70
2019-02-16T22:29:14.167Z,36.70
2019-02-16T22:31:45.543Z,36.70
2019-02-16T22:34:17.986Z,36.80
2019-02-16T22:36:49.795Z,36.70
2019-02-16T22:39:21.230Z,36.70
2019-02-16T22:41:53.584Z,36.70
2019-02-16T22:44:24.968Z,36.70
2019-02-16T22:46:56.218Z,36.70
2019-02-16T22:49:28.518Z,36.70
2019-02-16T22:51:59.750Z,36.70
2019-02-16T22:54:31.922Z,36.00
2019-02-16T22:57:03.286Z,36.70
2019-02-16T22:59:34.682Z,36.70
2019-02-16T23:02:08.557Z,36.70
2019-02-16T23:04:39.437Z,36.70
2019-02-16T23:07:10.566Z,36.70
2019-02-16T23:09:42.027Z,36.70
2019-02-16T23:12:13.166Z,36.70
2019-02-16T23:14:44.612Z,36.70
2019-02-16T23:17:16.074Z,36.70
2019-02-16T23:19:46.918Z,36.60
2019-02-16T23:22:18.042Z,36.60
2019-02-16T23:24:49.507Z,36.60
2019-02-16T23:27:20.641Z,36.70
2019-02-16T23:29:52.090Z,36.60
2019-02-16T23:32:23.277Z,36.60
2019-02-16T23:34:55.313Z,36.60
2019-02-16T23:37:26.766Z,36.70
2019-02-16T23:39:58.109Z,36.60
2019-02-16T23:42:29.259Z,36.60
2019-02-16T23:45:00.014Z,37.30
2019-02-16T23:47:31.224Z,37.50
2019-02-16T23:50:02.064Z,37.70
2019-02-16T23:52:33.201Z,37.70
2019-02-16T23:55:04.966Z,37.80
2019-02-16T23:57:36.098Z,37.90
